Time;durP1;ratioP1;P1;durP2;ratioP2;P2;SDS_P1;SDS_P2;PMS_P1;PMS_P2;Temp;Humidity;BMP_temperature;BMP_pressure;BME280_temperature;BME280_humidity;BME280_pressure;Samples;Min_cycle;Max_cycle;Signal;HPM_P1;HPM_P2
2021/10/03 00:00:13;;;;;;;10.43;7.90;;;;;;;10.71;100.00;95214.16;1019677;29;20038;-68
2021/10/03 00:00:43;;;;;;;9.07;7.20;;;;;;;10.68;100.00;95212.84;1022772;29;20086;-68
2021/10/03 00:01:16;;;;;;;11.80;8.32;;;;;;;10.67;100.00;95213.91;1022134;29;20368;-69
2021/10/03 00:01:46;;;;;;;16.85;8.07;;;;;;;10.62;100.00;95212.09;1027261;28;20026;-68
2021/10/03 00:02:17;;;;;;;9.80;7.70;;;;;;;10.64;100.00;95211.84;1030851;28;20749;-69
2021/10/03 00:02:50;;;;;;;14.82;7.82;;;;;;;10.66;100.00;95211.56;1029736;28;20471;-68
2021/10/03 00:03:22;;;;;;;11.27;7.63;;;;;;;10.64;100.00;95211.06;1030423;28;20135;-66
2021/10/03 00:03:54;;;;;;;10.40;7.80;;;;;;;10.61;100.00;95205.28;1030425;28;20699;-68
2021/10/03 00:04:30;;;;;;;9.35;7.60;;;;;;;10.56;100.00;95204.53;1026362;28;20318;-68
2021/10/03 00:05:00;;;;;;;9.70;7.57;;;;;;;10.59;100.00;95209.25;1022654;28;20278;-66
2021/10/03 00:05:31;;;;;;;11.65;7.50;;;;;;;10.54;100.00;95201.44;1027421;28;20282;-68
2021/10/03 00:06:04;;;;;;;12.23;7.90;;;;;;;10.52;100.00;95201.69;1026375;28;20049;-68
2021/10/03 00:06:35;;;;;;;9.45;7.25;;;;;;;10.53;100.00;95197.22;1018674;29;20095;-68
2021/10/03 00:07:05;;;;;;;11.48;7.65;;;;;;;10.51;100.00;95192.25;1026232;28;20313;-68
2021/10/03 00:07:35;;;;;;;9.82;7.47;;;;;;;10.52;100.00;95199.06;1027611;28;20069;-67
2021/10/03 00:08:07;;;;;;;10.27;7.55;;;;;;;10.56;100.00;95205.34;1026333;28;20505;-68
2021/10/03 00:08:37;;;;;;;9.90;7.22;;;;;;;10.56;100.00;95207.16;1026565;28;20059;-67
2021/10/03 00:09:08;;;;;;;10.90;8.20;;;;;;;10.53;100.00;95199.84;1026904;28;20266;-69
2021/10/03 00:09:44;;;;;;;9.38;7.78;;;;;;;10.47;100.00;95195.72;1023477;28;20031;-65
2021/10/03 00:10:15;;;;;;;12.00;7.32;;;;;;;10.55;100.00;95209.00;1027425;28;20278;-68
2021/10/03 00:10:45;;;;;;;11.30;7.75;;;;;;;10.53;100.00;95202.47;1022568;29;20373;-66
2021/10/03 00:11:16;;;;;;;10.60;7.55;;;;;;;10.53;100.00;95197.22;1023525;28;20274;-68
2021/10/03 00:11:46;;;;;;;10.60;7.38;;;;;;;10.51;100.00;95200.13;1027337;28;20035;-65
2021/10/03 00:12:18;;;;;;;9.70;7.30;;;;;;;10.50;100.00;95201.19;1026548;28;20019;-67
2021/10/03 00:12:48;;;;;;;7.57;6.60;;;;;;;10.50;100.00;95203.03;1030231;28;20823;-68
2021/10/03 00:13:19;;;;;;;9.90;7.35;;;;;;;10.49;100.00;95204.84;1026760;28;20263;-68
2021/10/03 00:13:50;;;;;;;10.70;7.13;;;;;;;10.47;100.00;95199.13;1026373;28;20035;-69
2021/10/03 00:14:21;;;;;;;10.38;7.22;;;;;;;10.48;100.00;95205.16;1022529;28;20330;-65
2021/10/03 00:14:51;;;;;;;11.55;7.40;;;;;;;10.46;100.00;95199.38;1023082;28;20034;-68
2021/10/03 00:15:22;;;;;;;10.43;7.45;;;;;;;10.41;100.00;95194.97;1026472;28;20042;-67
2021/10/03 00:15:53;;;;;;;7.93;6.20;;;;;;;10.46;100.00;95205.44;1026566;28;20053;-68
2021/10/03 00:16:23;;;;;;;8.35;6.05;;;;;;;10.45;100.00;95200.44;1022060;29;20062;-68
2021/10/03 00:16:56;;;;;;;10.65;6.45;;;;;;;10.43;100.00;95197.31;1022699;28;20338;-68
2021/10/03 00:17:27;;;;;;;7.47;5.95;;;;;;;10.39;100.00;95191.81;1019753;28;20020;-68
2021/10/03 00:17:57;;;;;;;9.38;6.10;;;;;;;10.43;100.00;95208.59;1024919;28;20278;-68
2021/10/03 00:18:28;;;;;;;8.73;6.35;;;;;;;10.42;100.00;95201.00;1018674;29;20502;-68
2021/10/03 00:18:58;;;;;;;11.30;5.97;;;;;;;10.43;100.00;95205.97;1022277;29;20039;-67
2021/10/03 00:19:29;;;;;;;6.95;6.25;;;;;;;10.36;100.00;95195.00;1022170;28;20035;-68
2021/10/03 00:20:00;;;;;;;8.30;6.40;;;;;;;10.36;100.00;95201.06;1022703;28;20031;-66
2021/10/03 00:20:30;;;;;;;8.55;5.97;;;;;;;10.33;100.00;95196.34;1029077;28;20121;-68
2021/10/03 00:21:10;;;;;;;9.30;6.15;;;;;;;10.32;100.00;95196.59;1026391;28;20031;-67
2021/10/03 00:21:40;;;;;;;7.80;6.05;;;;;;;10.35;100.00;95207.31;1029499;28;20022;-67
2021/10/03 00:22:11;;;;;;;9.73;7.30;;;;;;;10.29;100.00;95191.91;1031720;28;20050;-68
2021/10/03 00:22:41;;;;;;;8.63;5.95;;;;;;;10.27;100.00;95194.03;1022299;29;20027;-68
2021/10/03 00:23:12;;;;;;;11.55;6.38;;;;;;;10.33;100.00;95198.97;1019799;28;20055;-68
2021/10/03 00:23:43;;;;;;;7.38;6.05;;;;;;;10.32;100.00;95209.72;1026555;28;20018;-67
2021/10/03 00:24:13;;;;;;;8.38;5.88;;;;;;;10.31;100.00;95203.69;1023056;28;20031;-67
2021/10/03 00:24:44;;;;;;;9.02;6.30;;;;;;;10.31;100.00;95205.53;1026920;28;20659;-65
2021/10/03 00:25:14;;;;;;;8.82;6.60;;;;;;;10.29;100.00;95203.19;1030796;28;20078;-68
2021/10/03 00:25:45;;;;;;;8.45;6.63;;;;;;;10.21;100.00;95193.25;1030378;28;20527;-67
2021/10/03 00:26:15;;;;;;;9.40;6.72;;;;;;;10.28;100.00;95198.22;1022737;28;20042;-67
2021/10/03 00:26:45;;;;;;;9.75;6.30;;;;;;;10.19;100.00;95186.72;1022355;29;20035;-68
2021/10/03 00:27:19;;;;;;;8.00;6.75;;;;;;;10.24;100.00;95200.56;1023273;28;20046;-68
2021/10/03 00:27:49;;;;;;;9.85;6.28;;;;;;;10.23;100.00;95203.44;1022388;28;20041;-68
2021/10/03 00:28:20;;;;;;;8.65;6.97;;;;;;;10.18;100.00;95195.63;1020642;29;20285;-66
2021/10/03 00:28:50;;;;;;;9.55;7.05;;;;;;;10.21;100.00;95202.97;1018715;29;20040;-68
2021/10/03 00:29:21;;;;;;;9.20;6.53;;;;;;;10.18;100.00;95198.25;1022691;29;20031;-68
2021/10/03 00:29:51;;;;;;;10.43;6.68;;;;;;;10.19;100.00;95202.44;1019184;29;20035;-68
2021/10/03 00:30:22;;;;;;;8.40;6.15;;;;;;;10.20;100.00;95198.78;1018652;29;20011;-68
2021/10/03 00:30:53;;;;;;;7.88;6.75;;;;;;;10.20;100.00;95206.66;1018693;29;20267;-68
2021/10/03 00:31:23;;;;;;;10.73;6.60;;;;;;;10.16;100.00;95206.41;1018098;29;20630;-68
2021/10/03 00:31:54;;;;;;;12.77;6.53;;;;;;;10.14;100.00;95204.03;1018701;28;20066;-68
2021/10/03 00:32:24;;;;;;;7.30;5.95;;;;;;;10.13;100.00;95204.34;1027581;28;20030;-68
2021/10/03 00:32:55;;;;;;;8.38;6.38;;;;;;;10.05;100.00;95195.19;1030647;28;20026;-68
2021/10/03 00:33:25;;;;;;;9.25;6.60;;;;;;;10.12;100.00;95203.53;1026386;28;20050;-68
2021/10/03 00:33:55;;;;;;;7.80;6.15;;;;;;;10.11;100.00;95201.97;1026601;28;20085;-68
2021/10/03 00:34:26;;;;;;;9.98;6.57;;;;;;;10.06;100.00;95193.34;1030391;28;20129;-68
2021/10/03 00:34:56;;;;;;;9.73;6.43;;;;;;;10.10;100.00;95205.66;1030037;28;20029;-67
2021/10/03 00:35:28;;;;;;;8.38;6.15;;;;;;;10.04;100.00;95195.47;1026518;28;20508;-68
2021/10/03 00:35:58;;;;;;;9.45;6.47;;;;;;;10.08;100.00;95202.50;1022448;29;20035;-68
2021/10/03 00:36:29;;;;;;;7.90;6.38;;;;;;;10.06;100.00;95202.00;1023101;28;20023;-65
2021/10/03 00:36:59;;;;;;;7.57;6.35;;;;;;;10.05;100.00;95194.41;1029812;28;20519;-66
2021/10/03 00:37:30;;;;;;;7.40;6.07;;;;;;;9.99;100.00;95185.78;1018497;29;20020;-68
2021/10/03 00:38:02;;;;;;;9.75;6.93;;;;;;;10.00;100.00;95187.38;1018556;29;20145;-67
2021/10/03 00:38:32;;;;;;;7.53;6.47;;;;;;;10.04;100.00;95198.88;1024669;28;20023;-68
2021/10/03 00:39:03;;;;;;;7.80;6.55;;;;;;;10.01;100.00;95203.88;1030962;28;20269;-68
2021/10/03 00:39:33;;;;;;;9.25;6.20;;;;;;;10.00;100.00;95203.09;1022780;29;20041;-68
2021/10/03 00:40:04;;;;;;;7.72;6.10;;;;;;;9.91;100.00;95181.13;1024770;28;20436;-68
2021/10/03 00:40:37;;;;;;;9.13;7.15;;;;;;;9.98;100.00;95199.94;1027035;28;20398;-68
2021/10/03 00:41:07;;;;;;;11.20;6.10;;;;;;;9.91;100.00;95186.38;1029610;28;20289;-68
2021/10/03 00:41:38;;;;;;;8.02;6.20;;;;;;;9.88;100.00;95186.91;1017899;29;20708;-68
2021/10/03 00:42:09;;;;;;;8.40;6.65;;;;;;;9.95;100.00;95191.84;1022360;29;20023;-68
2021/10/03 00:42:39;;;;;;;7.95;6.57;;;;;;;9.97;100.00;95195.00;1018456;29;20035;-66
2021/10/03 00:43:11;;;;;;;7.47;6.45;;;;;;;9.89;100.00;95188.47;1018478;29;20026;-68
2021/10/03 00:43:42;;;;;;;9.68;6.75;;;;;;;9.95;100.00;95192.63;1014950;29;20028;-67
2021/10/03 00:44:12;;;;;;;11.55;6.57;;;;;;;9.90;100.00;95187.44;1015123;29;20280;-68
2021/10/03 00:44:43;;;;;;;9.95;6.63;;;;;;;9.94;100.00;95198.94;1019442;28;20059;-68
2021/10/03 00:45:14;;;;;;;9.73;6.40;;;;;;;9.80;100.00;95169.16;1018724;29;20498;-68
2021/10/03 00:45:47;;;;;;;8.30;6.13;;;;;;;9.88;100.00;95195.53;1018627;29;20477;-68
2021/10/03 00:46:21;;;;;;;8.45;6.28;;;;;;;9.88;100.00;95192.16;1016677;28;20264;-66
2021/10/03 00:46:51;;;;;;;8.77;6.55;;;;;;;9.87;100.00;95187.97;1022890;29;20279;-68
2021/10/03 00:47:22;;;;;;;8.73;6.32;;;;;;;9.87;100.00;95182.72;1024269;28;20032;-68
2021/10/03 00:47:52;;;;;;;10.30;7.00;;;;;;;9.79;100.00;95172.81;1018643;29;20138;-68
2021/10/03 00:48:23;;;;;;;8.15;6.43;;;;;;;9.87;100.00;95188.75;1026541;28;20023;-65
2021/10/03 00:48:53;;;;;;;12.45;7.10;;;;;;;9.87;100.00;95186.13;1026713;28;20034;-68
2021/10/03 00:49:24;;;;;;;8.43;6.65;;;;;;;9.85;100.00;95182.22;1022669;29;20034;-65
2021/10/03 00:49:56;;;;;;;8.85;6.72;;;;;;;9.88;100.00;95186.91;1018735;29;20506;-67
2021/10/03 00:50:27;;;;;;;8.82;6.32;;;;;;;9.79;100.00;95172.81;1022679;28;20477;-68
2021/10/03 00:50:58;;;;;;;11.05;7.18;;;;;;;9.84;100.00;95185.88;1022906;29;20266;-68
2021/10/03 00:51:28;;;;;;;9.77;6.32;;;;;;;9.87;100.00;95183.50;1022136;28;20262;-69
2021/10/03 00:52:01;;;;;;;7.05;6.35;;;;;;;9.82;100.00;95183.53;1022690;29;20031;-69
2021/10/03 00:52:32;;;;;;;8.55;6.53;;;;;;;9.82;100.00;95180.13;1023102;28;20031;-68
2021/10/03 00:53:02;;;;;;;8.40;6.47;;;;;;;9.89;100.00;95185.84;1019566;28;20311;-68
2021/10/03 00:53:33;;;;;;;7.15;6.30;;;;;;;9.89;100.00;95188.47;1019649;28;20288;-67
2021/10/03 00:54:03;;;;;;;8.00;6.63;;;;;;;9.83;100.00;95179.09;1026290;28;20065;-68
2021/10/03 00:54:34;;;;;;;8.40;6.55;;;;;;;9.89;100.00;95188.47;1020090;28;20074;-68
2021/10/03 00:55:07;;;;;;;9.68;6.50;;;;;;;9.86;100.00;95183.78;1030027;28;20026;-66
2021/10/03 00:55:38;;;;;;;8.88;6.40;;;;;;;9.88;100.00;95190.31;1027091;28;20559;-68
2021/10/03 00:56:12;;;;;;;7.40;6.00;;;;;;;9.80;100.00;95180.41;1022471;29;20370;-68
2021/10/03 00:56:42;;;;;;;9.73;6.53;;;;;;;9.85;100.00;95182.97;1025241;28;20094;-68
2021/10/03 00:57:13;;;;;;;7.95;6.25;;;;;;;9.86;100.00;95189.81;1026677;28;20348;-69
2021/10/03 00:57:45;;;;;;;8.27;6.28;;;;;;;9.87;100.00;95188.75;1029699;28;20037;-68
2021/10/03 00:58:15;;;;;;;8.38;6.57;;;;;;;9.86;100.00;95184.56;1019444;29;20039;-68
2021/10/03 00:58:45;;;;;;;8.45;6.68;;;;;;;9.85;100.00;95182.22;1023701;28;20359;-68
2021/10/03 00:59:16;;;;;;;9.05;6.63;;;;;;;9.83;100.00;95186.94;1029921;28;20444;-68
2021/10/03 00:59:46;;;;;;;10.32;6.55;;;;;;;9.85;100.00;95187.44;1032519;28;20037;-67
2021/10/03 01:00:22;;;;;;;8.45;6.30;;;;;;;9.86;100.00;95183.78;1027265;28;20019;-68
2021/10/03 01:00:52;;;;;;;9.93;6.85;;;;;;;9.85;100.00;95187.44;1023982;28;20408;-68
2021/10/03 01:01:23;;;;;;;10.80;6.47;;;;;;;9.74;100.00;95170.22;1018806;29;20320;-68
2021/10/03 01:01:53;;;;;;;8.07;6.20;;;;;;;9.84;100.00;95186.66;1018819;29;20039;-68
2021/10/03 01:02:24;;;;;;;14.15;6.30;;;;;;;9.78;100.00;95177.25;1018398;29;20517;-68
2021/10/03 01:02:54;;;;;;;8.40;5.95;;;;;;;9.76;100.00;95168.09;1030470;28;20444;-68
2021/10/03 01:03:25;;;;;;;7.53;6.43;;;;;;;9.82;100.00;95182.75;1029721;28;20030;-68
2021/10/03 01:03:55;;;;;;;9.50;6.45;;;;;;;9.83;100.00;95179.09;1020963;29;20168;-68
2021/10/03 01:04:26;;;;;;;7.97;6.38;;;;;;;9.83;100.00;95185.13;1022345;29;20038;-68
2021/10/03 01:04:56;;;;;;;9.05;6.43;;;;;;;9.83;100.00;95190.34;1026940;28;20023;-68
2021/10/03 01:05:29;;;;;;;11.00;6.55;;;;;;;9.83;100.00;95179.09;1026884;28;20030;-68
2021/10/03 01:06:04;;;;;;;8.05;6.13;;;;;;;9.81;100.00;95175.94;1027305;28;20031;-68
2021/10/03 01:06:35;;;;;;;11.35;5.97;;;;;;;9.79;100.00;95178.03;1026700;28;20274;-68
2021/10/03 01:07:08;;;;;;;7.07;6.30;;;;;;;9.84;100.00;95180.66;1018374;28;20883;-68
2021/10/03 01:07:39;;;;;;;9.32;5.90;;;;;;;9.73;100.00;95169.44;1020560;29;20275;-67
2021/10/03 01:08:09;;;;;;;7.43;6.07;;;;;;;9.82;100.00;95182.75;1026703;28;20361;-68
2021/10/03 01:08:40;;;;;;;7.93;6.35;;;;;;;9.81;100.00;95181.97;1016542;29;20024;-68
2021/10/03 01:09:10;;;;;;;9.85;6.57;;;;;;;9.79;100.00;95178.84;1022381;29;20486;-68
2021/10/03 01:09:41;;;;;;;11.18;6.22;;;;;;;9.81;100.00;95181.19;1018105;29;20054;-67
2021/10/03 01:10:14;;;;;;;6.03;5.38;;;;;;;9.77;100.00;95174.94;1026575;28;20042;-69
2021/10/03 01:10:44;;;;;;;9.35;6.32;;;;;;;9.78;100.00;95179.88;1030656;28;20081;-67
2021/10/03 01:11:15;;;;;;;9.77;5.93;;;;;;;9.79;100.00;95178.03;1026237;28;20752;-68
2021/10/03 01:11:46;;;;;;;8.02;5.80;;;;;;;9.77;100.00;95174.94;1022698;28;20039;-68
2021/10/03 01:12:16;;;;;;;9.07;6.20;;;;;;;9.75;100.00;95175.19;1022629;28;20420;-68
2021/10/03 01:12:47;;;;;;;10.15;6.45;;;;;;;9.75;100.00;95174.41;1024486;28;20039;-68
2021/10/03 01:13:18;;;;;;;8.60;6.50;;;;;;;9.67;100.00;95166.06;1026969;28;20031;-68
2021/10/03 01:13:48;;;;;;;6.95;5.80;;;;;;;9.73;100.00;95174.69;1030255;28;20269;-68
2021/10/03 01:14:19;;;;;;;7.88;6.55;;;;;;;9.75;100.00;95175.19;1022868;28;20035;-68
2021/10/03 01:14:49;;;;;;;7.82;6.40;;;;;;;9.73;100.00;95174.69;1026723;28;20094;-68
2021/10/03 01:15:20;;;;;;;8.65;5.97;;;;;;;9.77;100.00;95180.16;1022290;29;20134;-68
2021/10/03 01:15:52;;;;;;;9.77;6.05;;;;;;;9.75;100.00;95174.41;1022901;28;20039;-67
2021/10/03 01:16:22;;;;;;;7.50;5.97;;;;;;;9.77;100.00;95174.94;1025626;28;20509;-67
2021/10/03 01:16:53;;;;;;;7.38;6.35;;;;;;;9.75;100.00;95171.78;1022846;28;20267;-68
2021/10/03 01:17:23;;;;;;;7.07;5.85;;;;;;;9.75;100.00;95177.03;1023843;28;20038;-67
2021/10/03 01:17:54;;;;;;;7.35;5.72;;;;;;;9.65;100.00;95157.69;1024621;28;20062;-68
2021/10/03 01:18:25;;;;;;;6.63;5.50;;;;;;;9.76;100.00;95174.16;1022676;28;20498;-68
2021/10/03 01:18:56;;;;;;;6.45;5.35;;;;;;;9.77;100.00;95175.72;1022726;28;20130;-68
2021/10/03 01:19:29;;;;;;;7.47;5.65;;;;;;;9.75;100.00;95167.31;1022795;28;20061;-68
2021/10/03 01:20:00;;;;;;;11.50;5.72;;;;;;;9.75;100.00;95171.78;1019366;29;20331;-67
2021/10/03 01:20:31;;;;;;;7.10;5.50;;;;;;;9.69;100.00;95165.78;1019541;29;20346;-68
2021/10/03 01:21:04;;;;;;;10.50;5.97;;;;;;;9.72;100.00;95164.47;1026969;28;20030;-68
2021/10/03 01:21:35;;;;;;;7.88;5.88;;;;;;;9.73;100.00;95168.66;1030895;28;20377;-68
2021/10/03 01:22:05;;;;;;;6.68;5.45;;;;;;;9.74;100.00;95170.22;1027305;28;20342;-68
2021/10/03 01:22:36;;;;;;;11.27;6.03;;;;;;;9.65;100.00;95159.53;1025394;28;20662;-68
2021/10/03 01:23:07;;;;;;;7.05;5.63;;;;;;;9.68;100.00;95167.63;1023517;28;20028;-68
2021/10/03 01:23:38;;;;;;;7.07;5.60;;;;;;;9.70;100.00;95163.97;1027692;28;20307;-68
2021/10/03 01:24:08;;;;;;;8.35;5.82;;;;;;;9.66;100.00;95158.50;1019562;29;20462;-68
2021/10/03 01:24:39;;;;;;;8.88;6.03;;;;;;;9.67;100.00;95163.44;1022943;28;20027;-67
2021/10/03 01:25:10;;;;;;;6.43;5.32;;;;;;;9.64;100.00;95161.38;1015349;29;20039;-68
2021/10/03 01:25:45;;;;;;;12.20;6.55;;;;;;;9.63;100.00;95159.03;1019575;29;20389;-68
2021/10/03 01:26:16;;;;;;;8.65;6.35;;;;;;;9.66;100.00;95154.03;1025611;28;20446;-68
2021/10/03 01:26:46;;;;;;;6.80;5.75;;;;;;;9.65;100.00;95162.91;1027561;28;20278;-68
2021/10/03 01:27:16;;;;;;;7.82;5.70;;;;;;;9.67;100.00;95163.44;1028108;28;20034;-68
2021/10/03 01:27:47;;;;;;;11.80;5.68;;;;;;;9.66;100.00;95161.88;1030470;28;20558;-68
2021/10/03 01:28:18;;;;;;;7.68;5.88;;;;;;;9.43;100.00;95123.25;1031731;28;20455;-68
2021/10/03 01:28:53;;;;;;;6.60;5.55;;;;;;;9.64;100.00;95161.38;1027466;28;20061;-68
2021/10/03 01:29:26;;;;;;;8.13;5.78;;;;;;;9.65;100.00;95157.69;1031023;28;20510;-66
2021/10/03 01:29:57;;;;;;;7.10;5.68;;;;;;;9.60;100.00;95149.09;1024448;28;20273;-68
2021/10/03 01:30:27;;;;;;;7.72;5.88;;;;;;;9.64;100.00;95161.38;1020465;29;20271;-68
2021/10/03 01:30:58;;;;;;;6.97;5.70;;;;;;;9.66;100.00;95158.50;1019405;29;20012;-68
2021/10/03 01:31:31;;;;;;;7.38;5.93;;;;;;;9.66;100.00;95154.03;1019341;28;20020;-68
2021/10/03 01:32:02;;;;;;;8.05;5.57;;;;;;;9.57;100.00;95142.53;1024215;28;20259;-68
2021/10/03 01:32:32;;;;;;;8.90;5.95;;;;;;;9.66;100.00;95151.41;1032466;28;20022;-68
2021/10/03 01:33:03;;;;;;;6.55;5.47;;;;;;;9.60;100.00;95141.22;1039264;28;20089;-67
2021/10/03 01:33:33;;;;;;;9.05;6.18;;;;;;;9.58;100.00;95138.09;1035479;28;20131;-67
2021/10/03 01:34:06;;;;;;;7.72;5.60;;;;;;;9.60;100.00;95138.59;1026866;28;20023;-66
2021/10/03 01:34:40;;;;;;;5.70;5.13;;;;;;;9.56;100.00;95133.13;1023351;29;20516;-67
2021/10/03 01:35:10;;;;;;;9.02;5.35;;;;;;;9.63;100.00;95144.09;1027356;28;20313;-67
2021/10/03 01:35:41;;;;;;;26.50;6.60;;;;;;;9.66;100.00;95154.03;1023265;29;20027;-67
2021/10/03 01:36:11;;;;;;;12.65;5.95;;;;;;;9.65;100.00;95151.66;1023171;28;20140;-68
2021/10/03 01:36:41;;;;;;;7.28;5.38;;;;;;;9.68;100.00;95151.13;1023141;29;20035;-67
2021/10/03 01:37:12;;;;;;;10.00;6.25;;;;;;;9.67;100.00;95152.19;1023457;28;20079;-68
2021/10/03 01:37:42;;;;;;;12.55;5.50;;;;;;;9.62;100.00;95146.97;1031059;28;20033;-67
2021/10/03 01:38:15;;;;;;;9.38;5.88;;;;;;;9.67;100.00;95154.81;1030673;28;20456;-69
2021/10/03 01:38:45;;;;;;;9.68;5.80;;;;;;;9.65;100.00;95146.44;1019311;28;20099;-68
2021/10/03 01:39:16;;;;;;;6.35;5.00;;;;;;;9.62;100.00;95147.78;1019362;29;20327;-68
2021/10/03 01:39:46;;;;;;;6.68;5.50;;;;;;;9.64;100.00;95153.50;1031169;28;20129;-68
2021/10/03 01:40:17;;;;;;;12.68;6.22;;;;;;;9.60;100.00;95138.59;1023198;28;20027;-68
2021/10/03 01:40:48;;;;;;;7.55;5.53;;;;;;;9.62;100.00;95150.38;1027687;28;20604;-68
2021/10/03 01:41:18;;;;;;;8.70;5.63;;;;;;;9.63;100.00;95146.72;1026487;28;20295;-67
2021/10/03 01:41:49;;;;;;;7.68;5.72;;;;;;;9.62;100.00;95147.78;1025718;28;20043;-67
2021/10/03 01:42:20;;;;;;;7.40;5.65;;;;;;;9.56;100.00;95133.13;1031412;28;20027;-68
2021/10/03 01:42:52;;;;;;;8.57;5.95;;;;;;;9.54;100.00;95137.84;1035500;28;20048;-67
2021/10/03 01:43:23;;;;;;;11.43;5.70;;;;;;;9.56;100.00;95143.59;1027157;28;20109;-68
2021/10/03 01:43:53;;;;;;;7.90;5.60;;;;;;;9.57;100.00;95139.94;1027255;28;20381;-68
2021/10/03 01:44:24;;;;;;;10.23;6.15;;;;;;;9.57;100.00;95141.78;1031049;28;20455;-68
2021/10/03 01:44:54;;;;;;;8.73;5.72;;;;;;;9.56;100.00;95143.59;1030537;28;20022;-68
2021/10/03 01:45:27;;;;;;;7.03;5.25;;;;;;;9.55;100.00;95141.25;1024022;28;20026;-66
2021/10/03 01:45:58;;;;;;;7.47;5.60;;;;;;;9.55;100.00;95146.47;1021401;28;20058;-67
2021/10/03 01:46:28;;;;;;;6.53;5.70;;;;;;;9.53;100.00;95146.00;1027483;28;20258;-68
2021/10/03 01:46:59;;;;;;;6.35;5.50;;;;;;;9.49;100.00;95143.13;1033622;28;20037;-66
2021/10/03 01:47:29;;;;;;;6.82;5.25;;;;;;;9.44;100.00;95133.44;1027143;28;20125;-68
2021/10/03 01:48:00;;;;;;;7.65;5.10;;;;;;;9.49;100.00;95147.56;1022876;29;20031;-66
2021/10/03 01:48:31;;;;;;;7.53;5.85;;;;;;;9.48;100.00;95143.38;1020515;29;20032;-67
2021/10/03 01:49:01;;;;;;;7.20;5.72;;;;;;;9.41;100.00;95130.59;1023199;28;20270;-67
2021/10/03 01:49:32;;;;;;;6.18;5.55;;;;;;;9.46;100.00;95141.03;1024549;28;20533;-67
2021/10/03 01:50:03;;;;;;;6.53;5.60;;;;;;;9.47;100.00;95139.97;1023021;29;20708;-67
2021/10/03 01:50:40;;;;;;;7.75;5.70;;;;;;;9.37;100.00;95129.56;1022963;29;20269;-68
2021/10/03 01:51:10;;;;;;;7.00;6.00;;;;;;;9.41;100.00;95130.59;1019504;29;20465;-66
2021/10/03 01:51:41;;;;;;;7.15;5.38;;;;;;;9.49;100.00;95132.66;1022752;29;20309;-67
2021/10/03 01:52:11;;;;;;;6.47;5.03;;;;;;;9.48;100.00;95140.75;1022995;29;20413;-68
2021/10/03 01:52:42;;;;;;;6.65;5.50;;;;;;;9.48;100.00;95143.38;1027099;28;20100;-67
2021/10/03 01:53:14;;;;;;;6.95;5.40;;;;;;;9.44;100.00;95135.28;1026958;28;20498;-68
2021/10/03 01:53:52;;;;;;;7.43;5.90;;;;;;;9.40;100.00;95124.56;1023187;28;20118;-68
2021/10/03 01:54:23;;;;;;;7.68;5.60;;;;;;;9.44;100.00;95137.91;1024337;28;20817;-68
2021/10/03 01:54:53;;;;;;;7.20;5.97;;;;;;;9.46;100.00;95138.44;1027069;28;20281;-68
2021/10/03 01:55:23;;;;;;;9.73;5.30;;;;;;;9.43;100.00;95134.50;1028987;28;20030;-67
2021/10/03 01:55:54;;;;;;;7.30;5.25;;;;;;;9.31;100.00;95120.94;1031062;28;20027;-68
2021/10/03 01:56:32;;;;;;;7.30;5.57;;;;;;;9.35;100.00;95127.19;1026847;28;20710;-68
2021/10/03 01:57:02;;;;;;;6.15;5.55;;;;;;;9.40;100.00;95135.03;1022349;29;20098;-68
2021/10/03 01:57:33;;;;;;;6.60;5.47;;;;;;;9.30;100.00;95119.38;1023123;29;20262;-68
2021/10/03 01:58:04;;;;;;;7.95;5.50;;;;;;;9.38;100.00;95137.13;1021891;28;20023;-68
2021/10/03 01:58:45;;;;;;;8.50;5.20;;;;;;;9.42;100.00;95137.38;1019734;28;20051;-68
2021/10/03 01:59:17;;;;;;;9.55;5.50;;;;;;;9.41;100.00;95130.59;1023217;29;20035;-68
2021/10/03 01:59:47;;;;;;;7.05;4.97;;;;;;;9.42;100.00;95132.13;1022926;28;20298;-68
2021/10/03 02:00:17;;;;;;;8.60;5.50;;;;;;;9.36;100.00;95118.31;1024703;28;20266;-67
2021/10/03 02:00:50;;;;;;;6.90;5.05;;;;;;;9.42;100.00;95132.13;1022736;29;20069;-68
2021/10/03 02:01:29;;;;;;;8.73;5.50;;;;;;;9.33;100.00;95116.22;1022770;28;20019;-67
2021/10/03 02:02:00;;;;;;;6.10;5.22;;;;;;;9.41;100.00;95127.97;1026873;28;20278;-66
2021/10/03 02:02:31;;;;;;;6.75;5.40;;;;;;;9.41;100.00;95130.59;1026336;28;20839;-68
2021/10/03 02:03:02;;;;;;;8.20;6.07;;;;;;;9.37;100.00;95119.09;1026459;28;20317;-68
2021/10/03 02:03:42;;;;;;;6.55;4.82;;;;;;;9.40;100.00;95132.41;1023085;29;20026;-68
2021/10/03 02:04:16;;;;;;;9.82;5.70;;;;;;;9.40;100.00;95129.03;1022617;28;20262;-68
2021/10/03 02:04:47;;;;;;;7.60;5.53;;;;;;;9.37;100.00;95124.31;1026317;28;20760;-68
2021/10/03 02:05:17;;;;;;;7.93;5.22;;;;;;;9.37;100.00;95119.88;1027165;28;20262;-68
2021/10/03 02:05:48;;;;;;;8.63;5.70;;;;;;;9.31;100.00;95117.53;1029500;28;20034;-68
2021/10/03 02:06:18;;;;;;;7.40;5.20;;;;;;;9.32;100.00;95116.47;1027194;28;20058;-68
2021/10/03 02:06:50;;;;;;;6.22;5.25;;;;;;;9.37;100.00;95124.31;1021890;29;20031;-68
2021/10/03 02:07:20;;;;;;;7.63;5.63;;;;;;;9.37;100.00;95121.72;1022901;28;20031;-67
2021/10/03 02:07:50;;;;;;;6.07;5.43;;;;;;;9.33;100.00;95107.59;1023302;29;20784;-68
2021/10/03 02:08:21;;;;;;;5.90;4.85;;;;;;;9.40;100.00;95121.94;1022734;29;20034;-68
2021/10/03 02:08:55;;;;;;;6.22;5.05;;;;;;;9.41;100.00;95115.66;1023156;28;20032;-68
2021/10/03 02:09:29;;;;;;;6.80;5.40;;;;;;;9.36;100.00;95112.28;1021722;28;20470;-69
2021/10/03 02:09:59;;;;;;;8.23;5.05;;;;;;;9.29;100.00;95099.50;1023612;28;20279;-68
2021/10/03 02:10:30;;;;;;;6.55;5.47;;;;;;;9.34;100.00;95109.16;1027257;28;20293;-68
2021/10/03 02:11:00;;;;;;;6.70;5.60;;;;;;;9.37;100.00;95117.25;1022805;28;20027;-68
2021/10/03 02:11:31;;;;;;;7.10;5.35;;;;;;;9.34;100.00;95109.16;1018505;29;20031;-68
2021/10/03 02:12:01;;;;;;;6.20;4.93;;;;;;;9.29;100.00;95111.78;1026893;28;20086;-68
2021/10/03 02:12:32;;;;;;;9.15;5.78;;;;;;;9.33;100.00;95116.22;1024958;28;20035;-67
2021/10/03 02:13:04;;;;;;;6.25;5.28;;;;;;;9.32;100.00;95116.47;1026838;28;20026;-69
2021/10/03 02:13:34;;;;;;;8.70;5.43;;;;;;;9.31;100.00;95120.94;1024455;28;20068;-68
2021/10/03 02:14:08;;;;;;;7.70;5.50;;;;;;;9.31;100.00;95126.16;1023208;28;20271;-68
2021/10/03 02:14:38;;;;;;;7.13;5.60;;;;;;;9.30;100.00;95118.59;1031147;28;20554;-68
2021/10/03 02:15:09;;;;;;;6.10;5.22;;;;;;;9.29;100.00;95117.00;1027206;28;20266;-68
2021/10/03 02:15:41;;;;;;;7.15;5.55;;;;;;;9.23;100.00;95103.19;1031312;28;20109;-67
2021/10/03 02:16:11;;;;;;;6.82;5.30;;;;;;;9.19;100.00;95113.41;1027233;28;20027;-67
2021/10/03 02:16:41;;;;;;;6.90;5.28;;;;;;;9.25;100.00;95113.38;1022823;29;20377;-68
2021/10/03 02:17:12;;;;;;;6.38;5.57;;;;;;;9.18;100.00;95109.22;1026842;28;20026;-68
2021/10/03 02:17:45;;;;;;;6.15;5.53;;;;;;;9.25;100.00;95119.38;1023855;28;20023;-68
2021/10/03 02:18:17;;;;;;;8.32;5.63;;;;;;;9.25;100.00;95113.38;1027105;28;20254;-68
2021/10/03 02:18:47;;;;;;;6.57;5.13;;;;;;;9.26;100.00;95117.59;1027391;28;20027;-68
2021/10/03 02:19:18;;;;;;;8.30;5.10;;;;;;;9.19;100.00;95113.41;1031816;28;20273;-68
2021/10/03 02:19:48;;;;;;;7.05;5.30;;;;;;;9.26;100.00;95117.59;1035046;28;20030;-68
2021/10/03 02:20:19;;;;;;;5.85;5.25;;;;;;;9.26;100.00;95115.75;1031039;28;20032;-68
2021/10/03 02:20:53;;;;;;;6.28;5.18;;;;;;;9.25;100.00;95118.63;1027611;28;20033;-67
2021/10/03 02:21:24;;;;;;;6.80;5.43;;;;;;;9.27;100.00;95119.91;1026079;28;20046;-68
2021/10/03 02:21:54;;;;;;;7.35;5.10;;;;;;;9.27;100.00;95119.13;1022318;29;20657;-68
2021/10/03 02:22:25;;;;;;;7.95;5.60;;;;;;;9.26;100.00;95118.34;1022957;29;20477;-68
2021/10/03 02:22:56;;;;;;;7.15;5.78;;;;;;;9.21;100.00;95110.50;1022961;29;20073;-67
2021/10/03 02:23:26;;;;;;;7.43;5.28;;;;;;;9.25;100.00;95126.47;1022828;29;20066;-68
2021/10/03 02:23:56;;;;;;;6.18;5.28;;;;;;;9.17;100.00;95107.66;1022952;29;20031;-68
2021/10/03 02:24:27;;;;;;;8.25;5.43;;;;;;;9.20;100.00;95109.75;1022951;28;20608;-67
2021/10/03 02:24:57;;;;;;;7.63;5.57;;;;;;;9.23;100.00;95118.13;1023109;29;20106;-67
2021/10/03 02:25:28;;;;;;;6.38;5.22;;;;;;;9.21;100.00;95119.16;1022887;28;20034;-68
2021/10/03 02:25:58;;;;;;;6.80;5.57;;;;;;;9.20;100.00;95112.34;1022448;28;20030;-66